createdAt,value
2019-05-15T00:00:20.219Z,5.2
2019-05-15T00:01:19.432Z,5.2
2019-05-15T00:02:19.347Z,5.2
2019-05-15T00:03:19.893Z,4.9
2019-05-15T00:04:19.422Z,4.9
2019-05-15T00:05:20.730Z,4.9
2019-05-15T00:06:19.810Z,4.9
2019-05-15T00:07:19.897Z,4.9
2019-05-15T00:08:20.133Z,4.7
2019-05-15T00:09:19.926Z,4.7
2019-05-15T00:10:20.043Z,4.7
2019-05-15T00:11:19.541Z,4.8
2019-05-15T00:12:20.008Z,4.8
2019-05-15T00:13:19.983Z,4.7
2019-05-15T00:14:19.548Z,4.7
2019-05-15T00:15:20.001Z,4.7
2019-05-15T00:16:19.762Z,4.6
2019-05-15T00:17:19.802Z,4.6
2019-05-15T00:18:20.512Z,4.6
2019-05-15T00:19:20.797Z,4.6
2019-05-15T00:20:20.171Z,4.6
2019-05-15T00:21:19.982Z,4.5
2019-05-15T00:22:19.960Z,4.5
2019-05-15T00:23:19.897Z,4.5
2019-05-15T00:24:20.441Z,4.5
2019-05-15T00:25:22.620Z,4.5
2019-05-15T00:26:19.770Z,4.5
2019-05-15T00:27:20.382Z,4.5
2019-05-15T00:28:20.450Z,4.5
2019-05-15T00:29:20.703Z,4.3
2019-05-15T00:30:19.555Z,4.3
2019-05-15T00:31:19.760Z,4.3
2019-05-15T00:32:19.555Z,4.3
2019-05-15T00:33:20.282Z,4.3
2019-05-15T00:34:19.554Z,4.1
2019-05-15T00:35:20.005Z,4.1
2019-05-15T00:36:19.854Z,4.0
2019-05-15T00:37:20.674Z,4.0
2019-05-15T00:38:20.723Z,4.0
2019-05-15T00:39:19.900Z,3.9
2019-05-15T00:40:19.611Z,3.9
2019-05-15T00:41:19.533Z,3.7
2019-05-15T00:42:19.421Z,3.7
2019-05-15T00:43:19.517Z,3.7
2019-05-15T00:44:20.409Z,3.6
2019-05-15T00:45:19.506Z,3.6
2019-05-15T00:46:19.557Z,3.5
2019-05-15T00:47:20.093Z,3.5
2019-05-15T00:48:19.932Z,3.5
2019-05-15T00:49:19.937Z,3.3
2019-05-15T00:50:19.789Z,3.3
2019-05-15T00:51:19.809Z,3.2
2019-05-15T00:52:19.869Z,3.2
2019-05-15T00:53:19.775Z,3.2
2019-05-15T00:54:19.402Z,3.1
2019-05-15T00:55:19.463Z,3.1
2019-05-15T00:56:19.651Z,3.1
2019-05-15T00:57:19.917Z,3.3
2019-05-15T00:58:20.174Z,3.3
2019-05-15T00:59:24.184Z,3.3
2019-05-15T01:00:19.571Z,3.3
2019-05-15T01:01:19.683Z,3.3
2019-05-15T01:02:19.933Z,3.2
2019-05-15T01:03:21.530Z,3.2
2019-05-15T01:04:19.755Z,3.1
2019-05-15T01:05:19.802Z,3.1
2019-05-15T01:06:19.943Z,3.1
2019-05-15T01:07:20.251Z,3.1
2019-05-15T01:08:19.715Z,3.1
2019-05-15T01:09:19.497Z,2.9
2019-05-15T01:10:19.701Z,2.9
2019-05-15T01:11:20.016Z,2.9
2019-05-15T01:12:20.088Z,2.9
2019-05-15T01:13:20.367Z,2.9
2019-05-15T01:14:19.798Z,3.3
2019-05-15T01:15:19.632Z,3.3
2019-05-15T01:16:19.769Z,3.3
2019-05-15T01:17:19.770Z,3.4
2019-05-15T01:18:19.583Z,3.4
2019-05-15T01:19:19.776Z,3.5
2019-05-15T01:20:19.991Z,3.5
2019-05-15T01:21:19.729Z,3.5
2019-05-15T01:22:19.637Z,3.6
2019-05-15T01:23:20.231Z,3.6
2019-05-15T01:24:19.558Z,3.6
2019-05-15T01:25:20.203Z,3.7
2019-05-15T01:26:19.948Z,3.7
2019-05-15T01:27:19.990Z,3.7
2019-05-15T01:28:20.061Z,3.7
2019-05-15T01:29:19.913Z,3.7
2019-05-15T01:30:19.874Z,3.7
2019-05-15T01:31:19.525Z,3.7
2019-05-15T01:32:19.568Z,3.7
2019-05-15T01:33:20.034Z,3.7
2019-05-15T01:34:20.786Z,3.7
2019-05-15T01:35:19.505Z,3.6
2019-05-15T01:36:19.751Z,3.6
2019-05-15T01:37:19.837Z,3.6
2019-05-15T01:38:19.619Z,3.6
2019-05-15T01:39:19.807Z,3.6
2019-05-15T01:40:19.918Z,3.6
2019-05-15T01:41:20.160Z,3.6
2019-05-15T01:42:19.788Z,3.6
2019-05-15T01:43:20.092Z,3.6
2019-05-15T01:44:19.668Z,3.6
2019-05-15T01:45:21.254Z,3.6
2019-05-15T01:46:19.884Z,3.6
2019-05-15T01:47:19.691Z,3.5
2019-05-15T01:48:19.616Z,3.5
2019-05-15T01:49:19.714Z,3.5
2019-05-15T01:50:19.595Z,3.5
2019-05-15T01:51:19.794Z,3.5
2019-05-15T01:52:20.687Z,3.5
2019-05-15T01:53:20.300Z,3.5
2019-05-15T01:54:20.512Z,3.5
2019-05-15T01:55:19.639Z,3.4
2019-05-15T01:56:19.863Z,3.4
2019-05-15T01:57:20.820Z,3.4
2019-05-15T01:58:20.503Z,3.3
2019-05-15T01:59:19.812Z,3.3
2019-05-15T02:00:19.812Z,3.3
2019-05-15T02:01:20.199Z,3.3
2019-05-15T02:02:20.146Z,3.3
2019-05-15T02:03:20.496Z,3.3
2019-05-15T02:04:20.229Z,3.3
2019-05-15T02:05:20.473Z,3.2
2019-05-15T02:06:19.970Z,3.2
2019-05-15T02:07:19.629Z,3.2
2019-05-15T02:08:19.762Z,3.1
2019-05-15T02:09:20.054Z,3.1
2019-05-15T02:10:20.388Z,3.1
2019-05-15T02:11:20.358Z,3.1
2019-05-15T02:12:19.746Z,3.1
2019-05-15T02:13:19.690Z,3.0
2019-05-15T02:14:21.136Z,3.0
2019-05-15T02:15:19.604Z,2.8
2019-05-15T02:16:20.188Z,2.8
2019-05-15T02:17:19.622Z,2.8
2019-05-15T02:18:19.706Z,2.7
2019-05-15T02:19:19.710Z,2.7
2019-05-15T02:20:19.728Z,2.6
2019-05-15T02:21:20.123Z,2.6
2019-05-15T02:22:20.293Z,2.6
2019-05-15T02:23:19.666Z,2.6
2019-05-15T02:24:19.896Z,2.6
2019-05-15T02:25:22.534Z,2.6
2019-05-15T02:26:20.431Z,2.6
2019-05-15T02:27:20.118Z,2.6
2019-05-15T02:28:20.168Z,2.5
2019-05-15T02:29:22.607Z,2.5
2019-05-15T02:30:27.438Z,2.5
2019-05-15T02:31:19.905Z,2.4
2019-05-15T02:32:19.792Z,2.4
2019-05-15T02:33:20.296Z,2.4
2019-05-15T02:34:19.843Z,2.4
2019-05-15T02:35:19.840Z,2.4
2019-05-15T02:36:20.518Z,2.3
2019-05-15T02:37:20.062Z,2.3
2019-05-15T02:38:20.484Z,2.2
2019-05-15T02:39:19.635Z,2.2
2019-05-15T02:40:19.611Z,2.2
2019-05-15T02:41:21.621Z,2.1
2019-05-15T02:42:19.670Z,2.1
2019-05-15T02:43:20.134Z,2.1
2019-05-15T02:44:21.106Z,2.1
2019-05-15T02:45:19.967Z,2.1
2019-05-15T02:46:20.020Z,2.1
2019-05-15T02:47:20.115Z,2.1
2019-05-15T02:48:20.769Z,2.0
2019-05-15T02:49:20.063Z,2.0
2019-05-15T02:50:20.994Z,2.0
2019-05-15T02:51:19.756Z,1.9
2019-05-15T02:52:20.043Z,1.9
2019-05-15T02:53:20.438Z,1.7
2019-05-15T02:54:19.993Z,1.7
2019-05-15T02:55:19.948Z,1.7
2019-05-15T02:56:20.865Z,1.7
2019-05-15T02:57:20.397Z,1.7
2019-05-15T02:58:21.307Z,1.7
2019-05-15T02:59:19.831Z,1.7
2019-05-15T03:00:35.206Z,1.7
2019-05-15T03:01:20.353Z,1.7
2019-05-15T03:02:20.490Z,1.7
2019-05-15T03:03:20.671Z,1.7
2019-05-15T03:04:20.174Z,1.6
2019-05-15T03:05:19.752Z,1.6
2019-05-15T03:06:20.155Z,1.6
2019-05-15T03:07:19.716Z,1.6
2019-05-15T03:08:19.836Z,1.6
2019-05-15T03:09:20.283Z,1.6
2019-05-15T03:10:20.226Z,1.6
2019-05-15T03:11:20.342Z,1.6
2019-05-15T03:12:20.151Z,1.6
2019-05-15T03:13:19.770Z,1.6
2019-05-15T03:14:21.315Z,1.6
2019-05-15T03:15:19.854Z,1.6
2019-05-15T03:16:19.907Z,1.5
2019-05-15T03:17:20.307Z,1.5
2019-05-15T03:18:20.882Z,1.5
2019-05-15T03:19:20.171Z,1.3
2019-05-15T03:20:19.982Z,1.3
2019-05-15T03:21:20.407Z,1.2
2019-05-15T03:22:20.112Z,1.2
2019-05-15T03:23:20.104Z,1.2
2019-05-15T03:24:19.795Z,1.1
2019-05-15T03:25:20.245Z,1.1
2019-05-15T03:26:19.981Z,1.1
2019-05-15T03:27:19.868Z,1.3
2019-05-15T03:28:19.866Z,1.3
2019-05-15T03:29:21.051Z,1.2
2019-05-15T03:30:21.737Z,1.2
2019-05-15T03:31:35.235Z,1.2
2019-05-15T03:32:25.061Z,1.1
2019-05-15T03:33:26.639Z,1.1
2019-05-15T03:34:23.064Z,1.1
2019-05-15T03:35:22.403Z,1.1
2019-05-15T03:36:22.764Z,1.1
2019-05-15T03:37:21.485Z,1.2
2019-05-15T03:38:20.211Z,1.2
2019-05-15T03:39:19.760Z,1.1
2019-05-15T03:40:19.964Z,1.1
2019-05-15T03:41:19.856Z,1.1
2019-05-15T03:42:19.874Z,1.0
2019-05-15T03:43:19.788Z,1.0
2019-05-15T03:44:21.510Z,0.9
2019-05-15T03:45:20.033Z,0.9
2019-05-15T03:46:20.325Z,0.9
2019-05-15T03:47:20.176Z,1.0
2019-05-15T03:48:19.905Z,1.0
2019-05-15T03:49:20.207Z,1.1
2019-05-15T03:50:19.913Z,1.1
2019-05-15T03:51:20.195Z,1.1
2019-05-15T03:52:21.051Z,1.1
2019-05-15T03:53:19.849Z,1.1
2019-05-15T03:54:19.870Z,1.1
2019-05-15T03:55:21.685Z,1.1
2019-05-15T03:56:20.021Z,1.1
2019-05-15T03:57:22.776Z,1.2
2019-05-15T03:58:21.243Z,1.2
2019-05-15T03:59:20.028Z,1.2
2019-05-15T04:00:20.338Z,1.1
2019-05-15T04:01:29.907Z,1.1
2019-05-15T04:02:19.841Z,1.1
2019-05-15T04:03:20.550Z,1.1
2019-05-15T04:04:21.360Z,1.1
2019-05-15T04:05:20.875Z,1.0
2019-05-15T04:06:19.881Z,1.0
2019-05-15T04:07:19.808Z,1.0
2019-05-15T04:08:20.157Z,1.0
2019-05-15T04:09:19.866Z,1.0
2019-05-15T04:10:19.988Z,1.0
2019-05-15T04:11:20.523Z,1.0
2019-05-15T04:12:20.318Z,1.0
2019-05-15T04:13:20.092Z,1.0
2019-05-15T04:14:20.225Z,1.0
2019-05-15T04:15:20.138Z,1.1
2019-05-15T04:16:19.873Z,1.1
2019-05-15T04:17:20.586Z,1.1
2019-05-15T04:18:20.063Z,1.1
2019-05-15T04:19:19.882Z,1.1
2019-05-15T04:20:20.167Z,1.1
2019-05-15T04:21:20.201Z,1.1
2019-05-15T04:22:20.133Z,1.0
2019-05-15T04:23:20.269Z,1.0
2019-05-15T04:24:20.142Z,1.0
2019-05-15T04:25:20.342Z,1.1
2019-05-15T04:26:19.913Z,1.1
2019-05-15T04:27:19.970Z,1.1
2019-05-15T04:28:20.441Z,1.1
2019-05-15T04:29:20.074Z,1.1
2019-05-15T04:30:19.832Z,1.1
2019-05-15T04:31:20.203Z,1.1
2019-05-15T04:32:20.836Z,1.1
2019-05-15T04:33:20.007Z,1.2
2019-05-15T04:34:20.952Z,1.2
2019-05-15T04:35:20.029Z,1.2
2019-05-15T04:36:20.702Z,1.2
2019-05-15T04:37:19.970Z,1.2
2019-05-15T04:38:22.357Z,1.5
2019-05-15T04:39:20.009Z,1.5
2019-05-15T04:40:21.499Z,1.6
2019-05-15T04:41:21.079Z,1.6
2019-05-15T04:42:22.186Z,1.6
2019-05-15T04:43:23.356Z,1.7
2019-05-15T04:44:20.770Z,1.7
2019-05-15T04:45:20.028Z,1.8
2019-05-15T04:46:20.516Z,1.8
2019-05-15T04:47:19.973Z,1.8
2019-05-15T04:48:20.451Z,1.9
2019-05-15T04:49:22.436Z,1.9
2019-05-15T04:50:20.419Z,2.1
2019-05-15T04:51:20.136Z,2.1
2019-05-15T04:52:20.187Z,2.1
2019-05-15T04:53:20.431Z,2.3
2019-05-15T04:54:20.392Z,2.3
2019-05-15T04:55:20.044Z,2.4
2019-05-15T04:56:20.635Z,2.4
2019-05-15T04:57:20.342Z,2.4
2019-05-15T04:58:21.073Z,2.4
2019-05-15T04:59:20.003Z,2.4
2019-05-15T05:00:30.139Z,2.4
2019-05-15T05:01:20.331Z,2.3
2019-05-15T05:02:26.727Z,2.3
2019-05-15T05:03:20.588Z,2.3
2019-05-15T05:04:20.446Z,2.3
2019-05-15T05:05:20.753Z,2.3
2019-05-15T05:06:20.799Z,2.2
2019-05-15T05:07:20.346Z,2.2
2019-05-15T05:08:20.787Z,2.2
2019-05-15T05:09:20.952Z,2.2
2019-05-15T05:10:19.872Z,2.2
2019-05-15T05:11:23.729Z,2.3
2019-05-15T05:12:21.873Z,2.3
2019-05-15T05:13:20.930Z,2.5
2019-05-15T05:14:21.026Z,2.5
2019-05-15T05:15:20.340Z,2.5
2019-05-15T05:16:22.021Z,2.5
2019-05-15T05:17:23.212Z,2.5
2019-05-15T05:18:21.365Z,2.6
2019-05-15T05:19:20.205Z,2.6
2019-05-15T05:20:22.865Z,2.6
2019-05-15T05:21:20.659Z,2.6
2019-05-15T05:22:19.889Z,2.6
2019-05-15T05:23:20.461Z,2.7
2019-05-15T05:24:20.029Z,2.7
2019-05-15T05:25:22.197Z,2.7
2019-05-15T05:26:20.260Z,2.7
2019-05-15T05:27:20.331Z,2.7
2019-05-15T05:28:20.080Z,2.7
2019-05-15T05:29:20.365Z,2.8
2019-05-15T05:30:19.760Z,2.8
2019-05-15T05:31:19.975Z,3.0
2019-05-15T05:32:30.509Z,3.0
2019-05-15T05:33:20.325Z,3.0
2019-05-15T05:34:20.359Z,3.1
2019-05-15T05:35:19.821Z,3.1
2019-05-15T05:36:20.067Z,3.3
2019-05-15T05:37:19.839Z,3.3
2019-05-15T05:38:20.382Z,3.3
2019-05-15T05:39:20.272Z,3.5
2019-05-15T05:40:20.058Z,3.5
2019-05-15T05:41:20.669Z,3.4
2019-05-15T05:42:20.294Z,3.4
2019-05-15T05:43:20.377Z,3.4
2019-05-15T05:44:20.095Z,3.6
2019-05-15T05:45:20.035Z,3.6
2019-05-15T05:46:20.379Z,3.7
2019-05-15T05:47:20.149Z,3.7
2019-05-15T05:48:20.169Z,3.7
2019-05-15T05:49:20.658Z,3.9
2019-05-15T05:50:20.357Z,3.9
2019-05-15T05:51:19.985Z,3.9
2019-05-15T05:52:20.052Z,3.9
2019-05-15T05:53:21.088Z,3.9
2019-05-15T05:54:20.145Z,4.0
2019-05-15T05:55:20.293Z,4.0
2019-05-15T05:56:20.355Z,4.0
2019-05-15T05:57:20.098Z,4.0
2019-05-15T05:58:20.153Z,4.0
2019-05-15T05:59:19.942Z,3.8
2019-05-15T06:00:19.867Z,3.8
2019-05-15T06:01:19.950Z,3.8
2019-05-15T06:02:20.130Z,3.9
2019-05-15T06:03:20.139Z,3.9
2019-05-15T06:04:20.376Z,3.8
2019-05-15T06:05:20.190Z,3.8
2019-05-15T06:06:19.992Z,3.8
2019-05-15T06:07:19.925Z,3.9
2019-05-15T06:08:20.281Z,3.9
2019-05-15T06:09:20.278Z,3.9
2019-05-15T06:10:19.890Z,3.9
2019-05-15T06:11:19.902Z,3.9
2019-05-15T06:12:19.993Z,4.1
2019-05-15T06:13:19.985Z,4.1
2019-05-15T06:14:20.438Z,4.2
2019-05-15T06:15:19.967Z,4.2
2019-05-15T06:16:19.983Z,4.2
2019-05-15T06:17:20.182Z,4.1
2019-05-15T06:18:20.380Z,4.1
2019-05-15T06:19:20.408Z,4.2
2019-05-15T06:20:19.885Z,4.2
2019-05-15T06:21:20.520Z,4.2
2019-05-15T06:22:20.427Z,4.3
2019-05-15T06:23:23.228Z,4.3
2019-05-15T06:24:20.190Z,4.3
2019-05-15T06:25:20.317Z,4.3
2019-05-15T06:26:20.212Z,4.3
2019-05-15T06:27:20.419Z,4.3
2019-05-15T06:28:20.618Z,4.3
2019-05-15T06:29:20.097Z,4.3
2019-05-15T06:30:26.539Z,4.5
2019-05-15T06:31:19.928Z,4.5
2019-05-15T06:32:20.344Z,4.7
2019-05-15T06:33:20.030Z,4.7
2019-05-15T06:34:20.591Z,4.7
2019-05-15T06:35:20.005Z,4.9
2019-05-15T06:36:20.002Z,4.9
2019-05-15T06:37:20.117Z,4.9
2019-05-15T06:38:20.397Z,4.9
2019-05-15T06:39:20.454Z,4.9
2019-05-15T06:40:20.456Z,5.3
2019-05-15T06:41:20.692Z,5.3
2019-05-15T06:42:20.009Z,5.6
2019-05-15T06:43:20.340Z,5.6
2019-05-15T06:44:20.280Z,5.6
2019-05-15T06:45:20.558Z,5.6
2019-05-15T06:46:20.301Z,5.6
2019-05-15T06:47:20.015Z,5.8
2019-05-15T06:48:20.057Z,5.8
2019-05-15T06:49:19.951Z,5.8
2019-05-15T06:50:20.188Z,6.0
2019-05-15T06:51:20.145Z,6.0
2019-05-15T06:52:20.478Z,5.9
2019-05-15T06:53:20.481Z,5.9
2019-05-15T06:54:20.040Z,5.9
2019-05-15T06:55:20.014Z,6.1
2019-05-15T06:56:20.507Z,6.1
2019-05-15T06:57:20.494Z,6.2
2019-05-15T06:58:20.878Z,6.2
2019-05-15T06:59:20.021Z,6.2
2019-05-15T07:00:20.708Z,6.1
2019-05-15T07:01:20.462Z,6.1
2019-05-15T07:02:20.089Z,6.1
2019-05-15T07:03:24.026Z,6.3
2019-05-15T07:04:20.070Z,6.3
2019-05-15T07:05:20.187Z,6.3
2019-05-15T07:06:20.036Z,6.3
2019-05-15T07:07:20.765Z,6.3
2019-05-15T07:08:20.134Z,6.2
2019-05-15T07:09:19.989Z,6.2
2019-05-15T07:10:20.367Z,6.4
2019-05-15T07:11:20.143Z,6.4
2019-05-15T07:12:20.208Z,6.4
2019-05-15T07:13:20.692Z,6.8
2019-05-15T07:14:20.381Z,6.8
2019-05-15T07:15:20.004Z,6.9
2019-05-15T07:16:20.760Z,6.9
2019-05-15T07:17:20.062Z,6.9
2019-05-15T07:18:20.381Z,6.9
2019-05-15T07:19:20.066Z,6.9
2019-05-15T07:20:20.332Z,7.4
2019-05-15T07:21:20.569Z,7.4
2019-05-15T07:22:22.242Z,7.4
2019-05-15T07:23:21.467Z,7.5
2019-05-15T07:24:20.412Z,7.5
2019-05-15T07:25:20.739Z,7.6
2019-05-15T07:26:21.011Z,7.6
2019-05-15T07:27:20.043Z,7.6
2019-05-15T07:28:20.546Z,7.7
2019-05-15T07:29:20.131Z,7.7
2019-05-15T07:30:20.279Z,7.7
2019-05-15T07:31:20.526Z,8.0
2019-05-15T07:32:20.927Z,8.0
2019-05-15T07:33:34.278Z,8.2
2019-05-15T07:34:20.032Z,8.2
2019-05-15T07:35:20.500Z,8.2
2019-05-15T07:36:20.313Z,8.0
2019-05-15T07:37:20.353Z,8.0
2019-05-15T07:38:21.231Z,8.3
2019-05-15T07:39:20.723Z,8.3
2019-05-15T07:40:20.609Z,8.3
2019-05-15T07:41:20.652Z,8.1
2019-05-15T07:42:20.611Z,8.1
2019-05-15T07:43:20.183Z,8.4
2019-05-15T07:44:20.200Z,8.4
2019-05-15T07:45:20.864Z,8.4
2019-05-15T07:46:20.352Z,8.8
2019-05-15T07:47:20.695Z,8.8
2019-05-15T07:48:20.589Z,9.0
2019-05-15T07:49:20.759Z,9.0
2019-05-15T07:50:20.823Z,9.0
2019-05-15T07:51:30.365Z,8.6
2019-05-15T07:52:20.420Z,8.6
2019-05-15T07:53:20.676Z,8.8
2019-05-15T07:54:20.952Z,8.8
2019-05-15T07:55:22.015Z,8.8
2019-05-15T07:56:20.175Z,8.8
2019-05-15T07:57:22.955Z,8.8
2019-05-15T07:58:27.657Z,8.8
2019-05-15T07:59:21.210Z,8.8
2019-05-15T08:00:21.866Z,8.8
2019-05-15T08:01:20.690Z,9.1
2019-05-15T08:02:20.671Z,9.1
2019-05-15T08:03:20.735Z,9.1
2019-05-15T08:04:26.074Z,9.5
2019-05-15T08:05:20.209Z,9.5
2019-05-15T08:06:20.687Z,9.6
2019-05-15T08:07:20.674Z,9.6
2019-05-15T08:08:20.415Z,9.6
2019-05-15T08:09:20.633Z,9.2
2019-05-15T08:10:20.337Z,9.2
2019-05-15T08:11:24.027Z,9.0
2019-05-15T08:12:20.251Z,9.0
2019-05-15T08:13:20.213Z,9.0
2019-05-15T08:14:20.633Z,9.2
2019-05-15T08:15:20.664Z,9.2
2019-05-15T08:16:21.455Z,9.6
2019-05-15T08:17:21.864Z,9.6
2019-05-15T08:18:20.160Z,9.6
2019-05-15T08:19:20.326Z,9.6
2019-05-15T08:20:21.877Z,9.6
2019-05-15T08:21:20.139Z,9.6
2019-05-15T08:22:20.394Z,9.6
2019-05-15T08:23:20.650Z,9.6
2019-05-15T08:24:20.341Z,9.8
2019-05-15T08:25:30.580Z,9.8
2019-05-15T08:26:22.168Z,9.9
2019-05-15T08:27:23.588Z,9.9
2019-05-15T08:28:20.481Z,9.9
2019-05-15T08:29:21.704Z,9.7
2019-05-15T08:30:20.138Z,9.7
2019-05-15T08:31:22.181Z,9.7
2019-05-15T08:32:21.271Z,10.0
2019-05-15T08:33:20.406Z,10.0
2019-05-15T08:34:20.524Z,9.6
2019-05-15T08:35:21.473Z,9.6
2019-05-15T08:36:20.374Z,9.6
2019-05-15T08:37:21.978Z,9.6
2019-05-15T08:38:20.316Z,9.6
2019-05-15T08:39:21.378Z,9.6
2019-05-15T08:40:21.542Z,9.6
2019-05-15T08:41:21.832Z,9.6
2019-05-15T08:42:21.338Z,10.0
2019-05-15T08:43:20.502Z,10.0
2019-05-15T08:44:20.770Z,9.8
2019-05-15T08:45:23.446Z,9.8
2019-05-15T08:46:21.107Z,9.8
2019-05-15T08:47:20.836Z,9.8
2019-05-15T08:48:20.297Z,9.8
2019-05-15T08:49:21.500Z,9.9
2019-05-15T08:50:20.401Z,9.9
2019-05-15T08:51:20.442Z,9.9
2019-05-15T08:52:21.055Z,10.4
2019-05-15T08:53:21.031Z,10.4
2019-05-15T08:54:21.484Z,10.1
2019-05-15T08:55:20.344Z,10.1
2019-05-15T08:56:20.309Z,10.1
2019-05-15T08:57:21.094Z,10.0
2019-05-15T08:58:20.766Z,10.0
2019-05-15T08:59:20.326Z,10.2
2019-05-15T09:00:20.746Z,10.2
2019-05-15T09:01:20.370Z,10.2
2019-05-15T09:02:20.919Z,10.4
2019-05-15T09:03:20.501Z,10.4
2019-05-15T09:04:27.850Z,10.4
2019-05-15T09:05:22.316Z,10.4
2019-05-15T09:06:23.010Z,10.4
2019-05-15T09:07:20.509Z,10.2
2019-05-15T09:08:22.052Z,10.2
2019-05-15T09:09:20.303Z,10.2
2019-05-15T09:10:20.334Z,10.1
2019-05-15T09:11:20.266Z,10.1
2019-05-15T09:12:20.555Z,10.5
2019-05-15T09:13:20.355Z,10.5
2019-05-15T09:14:20.543Z,10.5
2019-05-15T09:15:20.359Z,10.8
2019-05-15T09:16:20.312Z,10.8
2019-05-15T09:17:20.601Z,11.1
2019-05-15T09:18:21.062Z,11.1
2019-05-15T09:19:20.289Z,11.1
2019-05-15T09:20:20.826Z,11.1
2019-05-15T09:21:22.311Z,11.1
2019-05-15T09:22:22.074Z,10.5
2019-05-15T09:23:21.028Z,10.5
2019-05-15T09:24:20.710Z,10.5
2019-05-15T09:25:20.430Z,10.8
2019-05-15T09:26:20.552Z,10.8
2019-05-15T09:27:20.621Z,11.1
2019-05-15T09:28:21.035Z,11.1
2019-05-15T09:29:20.322Z,11.1
2019-05-15T09:30:21.610Z,10.8
2019-05-15T09:31:20.813Z,10.8
2019-05-15T09:32:20.894Z,10.8
2019-05-15T09:33:21.375Z,10.8
2019-05-15T09:34:25.041Z,10.8
2019-05-15T09:35:22.378Z,11.2
2019-05-15T09:36:21.242Z,11.2
2019-05-15T09:37:20.278Z,11.2
2019-05-15T09:38:20.998Z,11.3
2019-05-15T09:39:20.521Z,11.3
2019-05-15T09:40:21.388Z,11.6
2019-05-15T09:41:20.871Z,11.6
2019-05-15T09:42:20.940Z,11.6
2019-05-15T09:43:20.519Z,11.7
2019-05-15T09:44:22.165Z,11.7
2019-05-15T09:45:20.488Z,12.1
2019-05-15T09:46:22.079Z,12.1
2019-05-15T09:47:20.993Z,12.1
2019-05-15T09:48:20.944Z,11.7
2019-05-15T09:49:20.633Z,11.7
2019-05-15T09:50:24.426Z,11.0
2019-05-15T09:51:20.646Z,11.0
2019-05-15T09:52:22.876Z,11.0
2019-05-15T09:53:20.823Z,10.8
2019-05-15T09:54:20.429Z,10.8
2019-05-15T09:55:20.940Z,10.7
2019-05-15T09:56:20.839Z,10.7
2019-05-15T09:57:21.661Z,10.7
2019-05-15T09:58:21.485Z,10.8
2019-05-15T09:59:21.392Z,10.8
2019-05-15T10:00:21.530Z,10.8
2019-05-15T10:01:20.535Z,10.8
2019-05-15T10:02:20.400Z,10.8
2019-05-15T10:03:21.956Z,12.1
2019-05-15T10:04:20.646Z,12.1
2019-05-15T10:05:21.082Z,12.1
2019-05-15T10:06:21.737Z,12.0
2019-05-15T10:07:21.896Z,12.0
2019-05-15T10:08:21.385Z,11.9
2019-05-15T10:09:20.906Z,11.9
2019-05-15T10:10:20.399Z,11.9
2019-05-15T10:11:20.462Z,10.9
2019-05-15T10:12:20.997Z,10.9
2019-05-15T10:13:20.882Z,10.8
2019-05-15T10:14:21.823Z,10.8
2019-05-15T10:15:20.467Z,10.8
2019-05-15T10:16:20.670Z,10.4
2019-05-15T10:17:22.121Z,10.4
2019-05-15T10:18:22.124Z,10.4
2019-05-15T10:19:20.439Z,10.4
2019-05-15T10:20:21.142Z,10.4
2019-05-15T10:21:21.033Z,10.4
2019-05-15T10:22:20.734Z,10.4
2019-05-15T10:23:20.843Z,10.7
2019-05-15T10:24:21.825Z,10.7
2019-05-15T10:25:20.393Z,10.7
2019-05-15T10:26:21.602Z,10.9
2019-05-15T10:27:20.953Z,10.9
2019-05-15T10:28:20.611Z,10.8
2019-05-15T10:29:20.827Z,10.8
2019-05-15T10:30:20.524Z,10.8
2019-05-15T10:31:20.673Z,10.9
2019-05-15T10:32:21.648Z,10.9
2019-05-15T10:33:20.775Z,10.9
2019-05-15T10:34:20.780Z,10.8
2019-05-15T10:35:25.745Z,10.8
2019-05-15T10:36:21.145Z,10.8
2019-05-15T10:37:20.556Z,10.8
2019-05-15T10:38:21.806Z,10.8
2019-05-15T10:39:21.636Z,10.5
2019-05-15T10:40:20.958Z,10.5
2019-05-15T10:41:20.896Z,10.5
2019-05-15T10:42:20.619Z,10.5
2019-05-15T10:43:21.560Z,10.5
2019-05-15T10:44:21.451Z,10.8
2019-05-15T10:45:20.366Z,10.8
2019-05-15T10:46:20.414Z,10.9
2019-05-15T10:47:22.051Z,10.9
2019-05-15T10:48:21.492Z,10.9
2019-05-15T10:49:21.312Z,10.9
2019-05-15T10:50:22.833Z,10.9
2019-05-15T10:51:21.239Z,11.0
2019-05-15T10:52:21.242Z,11.0
2019-05-15T10:53:22.867Z,11.0
2019-05-15T10:54:21.126Z,11.0
2019-05-15T10:55:21.485Z,11.0
2019-05-15T10:56:25.020Z,11.2
2019-05-15T10:57:20.908Z,11.2
2019-05-15T10:58:21.839Z,11.2
2019-05-15T10:59:21.171Z,11.7
2019-05-15T11:00:21.363Z,11.7
2019-05-15T11:01:21.304Z,12.4
2019-05-15T11:02:22.968Z,12.4
2019-05-15T11:03:22.365Z,12.4
2019-05-15T11:04:22.089Z,12.4
2019-05-15T11:05:37.306Z,12.4
2019-05-15T11:06:20.744Z,12.4
2019-05-15T11:07:21.356Z,12.7
2019-05-15T11:08:21.348Z,12.7
2019-05-15T11:09:23.251Z,12.6
2019-05-15T11:10:20.800Z,12.6
2019-05-15T11:11:20.491Z,12.6
2019-05-15T11:12:20.621Z,12.9
2019-05-15T11:13:20.715Z,12.9
2019-05-15T11:14:20.514Z,12.8
2019-05-15T11:15:20.737Z,12.8
2019-05-15T11:16:21.192Z,12.8
2019-05-15T11:17:23.819Z,13.1
2019-05-15T11:18:22.927Z,13.1
2019-05-15T11:19:21.918Z,12.6
2019-05-15T11:20:21.926Z,12.6
2019-05-15T11:21:24.265Z,12.6
2019-05-15T11:22:20.632Z,12.6
2019-05-15T11:23:22.552Z,12.6
2019-05-15T11:24:20.667Z,13.3
2019-05-15T11:25:24.244Z,13.3
2019-05-15T11:26:22.825Z,13.3
2019-05-15T11:27:20.579Z,13.1
2019-05-15T11:28:20.598Z,13.1
2019-05-15T11:29:20.722Z,12.8
2019-05-15T11:30:21.904Z,12.8
2019-05-15T11:31:20.838Z,12.8
2019-05-15T11:32:23.451Z,12.5
2019-05-15T11:33:21.119Z,12.5
2019-05-15T11:34:20.670Z,12.5
2019-05-15T11:35:20.916Z,13.2
2019-05-15T11:36:20.834Z,13.2
2019-05-15T11:37:23.498Z,13.5
2019-05-15T11:38:21.295Z,13.5
2019-05-15T11:39:22.049Z,13.5
2019-05-15T11:40:21.609Z,12.7
2019-05-15T11:41:21.352Z,12.7
2019-05-15T11:42:22.225Z,12.3
2019-05-15T11:43:20.832Z,12.3
2019-05-15T11:44:21.375Z,12.3
2019-05-15T11:45:21.396Z,11.6
2019-05-15T11:46:21.407Z,11.6
2019-05-15T11:47:23.082Z,12.3
2019-05-15T11:48:21.086Z,12.3
2019-05-15T11:49:20.631Z,12.3
2019-05-15T11:50:21.059Z,13.1
2019-05-15T11:51:20.992Z,13.1
2019-05-15T11:52:21.086Z,12.8
2019-05-15T11:53:21.478Z,12.8
2019-05-15T11:54:20.655Z,12.8
2019-05-15T11:55:21.066Z,11.9
2019-05-15T11:56:20.747Z,11.9
2019-05-15T11:57:36.992Z,11.6
2019-05-15T11:58:21.199Z,11.6
2019-05-15T11:59:21.155Z,11.6
2019-05-15T12:00:26.510Z,12.3
2019-05-15T12:01:22.723Z,12.3
2019-05-15T12:02:23.710Z,12.3
2019-05-15T12:03:24.819Z,12.3
2019-05-15T12:04:27.675Z,12.3
2019-05-15T12:05:20.736Z,11.8
2019-05-15T12:06:23.053Z,11.8
2019-05-15T12:07:21.336Z,11.8
2019-05-15T12:08:23.646Z,11.7
2019-05-15T12:09:22.107Z,11.7
2019-05-15T12:10:20.757Z,11.8
2019-05-15T12:11:32.100Z,11.8
2019-05-15T12:12:21.168Z,11.8
2019-05-15T12:13:20.676Z,12.3
2019-05-15T12:14:22.909Z,12.3
2019-05-15T12:15:21.925Z,11.8
2019-05-15T12:16:22.033Z,11.8
2019-05-15T12:17:22.751Z,11.8
2019-05-15T12:18:23.844Z,11.6
2019-05-15T12:19:23.186Z,11.6
2019-05-15T12:20:21.212Z,11.8
2019-05-15T12:21:21.794Z,11.8
2019-05-15T12:22:21.785Z,11.8
2019-05-15T12:23:21.094Z,11.6
2019-05-15T12:24:20.905Z,11.6
2019-05-15T12:25:20.840Z,11.8
2019-05-15T12:26:24.607Z,11.8
2019-05-15T12:27:21.103Z,11.8
2019-05-15T12:28:21.391Z,12.6
2019-05-15T12:29:21.112Z,12.6
2019-05-15T12:30:21.477Z,12.5
2019-05-15T12:31:24.380Z,12.5
2019-05-15T12:32:31.495Z,12.5
2019-05-15T12:33:23.145Z,11.8
2019-05-15T12:34:20.747Z,11.8
2019-05-15T12:35:22.358Z,11.8
2019-05-15T12:36:40.983Z,12.0
2019-05-15T12:37:21.676Z,12.0
2019-05-15T12:38:22.348Z,11.9
2019-05-15T12:39:22.188Z,11.9
2019-05-15T12:59:46.357Z,12.7
2019-05-15T13:00:22.702Z,12.7
2019-05-15T13:01:23.202Z,12.6
2019-05-15T13:02:23.563Z,12.6
2019-05-15T13:03:21.752Z,13.2
2019-05-15T13:04:21.739Z,13.2
2019-05-15T13:05:21.814Z,13.2
2019-05-15T13:06:20.798Z,13.0
2019-05-15T13:07:21.779Z,13.0
2019-05-15T13:08:22.124Z,13.0
2019-05-15T13:09:21.138Z,12.5
2019-05-15T13:10:28.719Z,12.5
2019-05-15T13:11:28.396Z,12.6
2019-05-15T13:12:23.173Z,12.6
2019-05-15T13:13:23.443Z,12.6
2019-05-15T13:14:23.152Z,12.7
2019-05-15T13:15:22.039Z,12.7
2019-05-15T13:16:23.942Z,12.9
2019-05-15T13:17:21.203Z,12.9
2019-05-15T13:18:21.053Z,12.9
2019-05-15T13:19:28.249Z,12.9
2019-05-15T13:20:21.168Z,12.9
2019-05-15T13:21:21.693Z,13.0
2019-05-15T13:22:24.587Z,13.0
2019-05-15T13:23:21.131Z,13.0
2019-05-15T13:24:20.910Z,13.0
2019-05-15T13:25:23.296Z,13.0
2019-05-15T13:26:23.628Z,12.5
2019-05-15T13:27:22.262Z,12.5
2019-05-15T13:28:23.179Z,12.5
2019-05-15T13:29:32.137Z,12.5
2019-05-15T13:30:41.278Z,12.5
2019-05-15T13:31:21.093Z,12.7
2019-05-15T13:32:22.500Z,12.7
2019-05-15T13:33:27.161Z,12.7
2019-05-15T13:34:21.212Z,13.2
2019-05-15T13:35:22.198Z,13.2
2019-05-15T13:36:21.532Z,13.2
2019-05-15T13:37:26.927Z,13.1
2019-05-15T13:38:38.086Z,13.1
2019-05-15T13:39:20.785Z,13.1
2019-05-15T13:40:32.840Z,13.1
2019-05-15T13:41:22.033Z,13.1
2019-05-15T13:42:21.226Z,13.2
2019-05-15T13:43:21.371Z,13.2
2019-05-15T13:44:23.468Z,13.5
2019-05-15T13:45:21.042Z,13.5
2019-05-15T13:46:22.477Z,13.5
2019-05-15T13:47:20.961Z,13.5
2019-05-15T13:48:21.508Z,13.5
2019-05-15T13:49:22.337Z,13.6
2019-05-15T13:50:23.099Z,13.6
2019-05-15T13:51:32.224Z,13.6
2019-05-15T13:52:22.567Z,13.6
2019-05-15T13:53:29.179Z,13.6
2019-05-15T13:54:23.933Z,12.8
2019-05-15T13:55:25.421Z,12.8